Altamont, Pennsylvania
Current Conditions -  °F | °C
As of 12:35 AM on Sunday 26 Oct 2014 (Local Time) from KHZL Reporting Station
Scattered Clouds Scattered Clouds  
Wind Chill: 55°   Ceiling: Unl
Heat Index: 55°   Visibility: 10mi
Dew Point: 41°   Wind: 9mph
Humidity: 58%   Direction: 290°WNW
Pressure: 29.64"   Gusts: 16mph
Location:  40.7811°N, 76.2523°W
Report Text: KHZL 260435Z AUTO 29008G14KT 10SM SCT090 13/05 A2964 RMK AO2
Loading
Personal Weather Stations






























Interactive Weather Map New forecast layout! Learn more

10-Day Weather Forecast

Advertisements
Track Severe Weather on mobile